createdAt,value
2022-12-23T00:02:43.609Z,41.53
2022-12-23T00:08:06.653Z,41.38
2022-12-23T00:13:46.648Z,41.10
2022-12-23T00:19:08.363Z,41.40
2022-12-23T00:24:30.070Z,41.36
2022-12-23T00:29:51.885Z,41.56
2022-12-23T00:35:13.615Z,41.19
2022-12-23T00:40:54.033Z,41.25
2022-12-23T00:46:15.877Z,41.62
2022-12-23T00:51:37.636Z,41.18
2022-12-23T00:57:00.128Z,41.41
2022-12-23T01:02:40.744Z,41.56
2022-12-23T01:08:07.951Z,41.30
2022-12-23T01:13:29.663Z,41.27
2022-12-23T01:18:51.345Z,41.25
2022-12-23T01:24:13.066Z,41.13
2022-12-23T01:29:34.888Z,41.47
2022-12-23T01:34:56.614Z,41.26
2022-12-23T01:40:18.459Z,41.18
2022-12-23T01:45:40.202Z,41.55
2022-12-23T01:51:08.981Z,41.58
2022-12-23T01:56:36.916Z,41.49
2022-12-23T02:02:17.695Z,41.20
2022-12-23T02:07:59.414Z,41.39
2022-12-23T02:13:29.595Z,41.40
2022-12-23T02:19:24.819Z,41.29
2022-12-23T02:25:31.930Z,41.32
2022-12-23T02:31:23.118Z,41.39
2022-12-23T02:37:00.092Z,41.26
2022-12-23T02:42:33.586Z,41.11
2022-12-23T02:48:12.480Z,41.34
2022-12-23T02:53:40.544Z,41.43
2022-12-23T02:59:06.834Z,41.46
2022-12-23T03:04:28.657Z,41.25
2022-12-23T03:10:08.558Z,41.51
2022-12-23T03:15:52.247Z,41.41
2022-12-23T03:21:35.282Z,41.31
2022-12-23T03:27:28.171Z,41.39
2022-12-23T03:32:55.365Z,41.48
2022-12-23T03:38:19.289Z,41.42
2022-12-23T03:43:51.227Z,41.21
2022-12-23T03:49:18.760Z,41.20
2022-12-23T03:54:48.430Z,41.37
2022-12-23T04:00:11.088Z,41.06
2022-12-23T04:05:36.587Z,41.30
2022-12-23T04:10:59.312Z,41.06
2022-12-23T04:16:21.256Z,41.00
2022-12-23T04:21:43.003Z,41.42
2022-12-23T04:27:05.133Z,41.20
2022-12-23T04:32:26.972Z,41.42
2022-12-23T04:37:48.759Z,41.32
2022-12-23T04:43:10.464Z,41.20
2022-12-23T04:48:32.166Z,41.19
2022-12-23T04:53:53.822Z,41.20
2022-12-23T04:59:15.541Z,41.33
2022-12-23T05:04:37.385Z,41.10
2022-12-23T05:10:02.132Z,41.32
2022-12-23T05:15:24.273Z,41.14
2022-12-23T05:20:46.360Z,40.83
2022-12-23T05:26:08.044Z,41.20
2022-12-23T05:31:29.769Z,41.28
2022-12-23T05:36:51.559Z,41.00
2022-12-23T05:42:13.856Z,41.36
2022-12-23T05:47:36.022Z,40.93
2022-12-23T05:52:57.986Z,41.07
2022-12-23T05:58:19.711Z,41.18
2022-12-23T06:03:41.450Z,40.83
2022-12-23T06:09:03.382Z,41.09
2022-12-23T06:14:28.863Z,40.86
2022-12-23T06:19:51.142Z,40.37
2022-12-23T06:25:12.952Z,39.87
2022-12-23T06:30:35.230Z,39.00
2022-12-23T06:35:56.929Z,38.74
2022-12-23T06:41:18.909Z,38.27
2022-12-23T06:46:40.603Z,38.50
2022-12-23T06:52:02.374Z,38.36
2022-12-23T06:57:24.048Z,38.26
2022-12-23T07:02:45.914Z,38.59
2022-12-23T07:08:07.718Z,38.75
2022-12-23T07:13:30.192Z,39.15
2022-12-23T07:18:52.089Z,39.15
2022-12-23T07:24:13.820Z,39.20
2022-12-23T07:29:35.539Z,39.62
2022-12-23T07:34:57.223Z,39.41
2022-12-23T07:40:19.019Z,39.31
2022-12-23T07:45:40.765Z,39.42
2022-12-23T07:51:03.972Z,39.60
2022-12-23T07:56:25.710Z,39.28
2022-12-23T08:01:47.540Z,39.54
2022-12-23T08:07:09.283Z,39.35
2022-12-23T08:12:30.955Z,38.84
2022-12-23T08:17:54.773Z,38.76
2022-12-23T08:23:21.417Z,38.51
2022-12-23T08:28:46.302Z,38.33
2022-12-23T08:34:08.319Z,38.03
2022-12-23T08:39:30.037Z,37.98
2022-12-23T08:44:51.700Z,38.35
2022-12-23T08:50:13.459Z,38.19
2022-12-23T08:55:43.827Z,38.03
2022-12-23T09:01:07.523Z,37.96
2022-12-23T09:06:34.292Z,37.99
2022-12-23T09:11:55.992Z,38.37
2022-12-23T09:17:17.904Z,38.71
2022-12-23T09:22:39.741Z,38.79
2022-12-23T09:28:01.459Z,39.39
2022-12-23T09:33:23.213Z,39.21
2022-12-23T09:38:45.251Z,39.77
2022-12-23T09:44:22.652Z,39.79
2022-12-23T09:50:03.322Z,40.46
2022-12-23T09:55:32.438Z,40.84
2022-12-23T10:01:27.832Z,41.26
2022-12-23T10:07:03.967Z,41.42
2022-12-23T10:12:28.248Z,41.84
2022-12-23T10:17:57.064Z,41.58
2022-12-23T10:23:31.355Z,41.96
2022-12-23T10:29:18.776Z,42.28
2022-12-23T10:35:05.487Z,42.65
2022-12-23T10:40:35.629Z,42.02
2022-12-23T10:46:29.228Z,42.47
2022-12-23T10:51:55.439Z,42.65
2022-12-23T10:57:19.744Z,42.88
2022-12-23T11:03:01.421Z,42.73
2022-12-23T11:08:25.356Z,42.55
2022-12-23T11:13:47.790Z,43.03
2022-12-23T11:19:15.354Z,42.82
2022-12-23T11:24:42.860Z,42.69
2022-12-23T11:30:05.692Z,42.50
2022-12-23T11:35:37.026Z,42.47
2022-12-23T11:40:59.422Z,42.47
2022-12-23T11:46:30.406Z,42.10
2022-12-23T11:52:01.933Z,41.75
2022-12-23T11:57:48.512Z,41.79
2022-12-23T12:03:18.919Z,42.00
2022-12-23T12:08:41.812Z,41.72
2022-12-23T12:14:06.613Z,41.35
2022-12-23T12:19:43.575Z,41.56
2022-12-23T12:25:19.991Z,41.45
2022-12-23T12:30:52.838Z,41.40
2022-12-23T12:36:25.895Z,41.49
2022-12-23T12:41:58.541Z,41.61
2022-12-23T12:53:22.039Z,42.30
2022-12-23T12:58:45.086Z,42.69
2022-12-23T13:04:38.986Z,43.72
2022-12-23T13:10:15.984Z,43.61
2022-12-23T13:15:50.418Z,44.46
2022-12-23T13:21:16.117Z,44.17
2022-12-23T13:26:54.425Z,44.30
2022-12-23T13:33:02.339Z,44.90
2022-12-23T13:38:47.091Z,44.68
2022-12-23T13:44:10.909Z,44.93
2022-12-23T13:49:41.427Z,44.70
2022-12-23T13:55:11.748Z,44.86
2022-12-23T14:00:35.421Z,44.73
2022-12-23T14:05:57.131Z,45.67
2022-12-23T14:11:30.493Z,45.94
2022-12-23T14:17:07.097Z,45.99
2022-12-23T14:22:54.690Z,45.91
2022-12-23T14:28:58.260Z,46.30
2022-12-23T14:34:20.381Z,46.24
2022-12-23T14:39:42.583Z,46.40
2022-12-23T14:45:34.104Z,46.47
2022-12-23T14:51:02.050Z,46.44
2022-12-23T14:56:38.734Z,46.23
2022-12-23T15:02:01.762Z,46.11
2022-12-23T15:07:29.824Z,46.44
2022-12-23T15:13:02.962Z,46.88
2022-12-23T15:18:25.692Z,47.03
2022-12-23T15:23:50.835Z,46.65
2022-12-23T15:29:15.244Z,46.84
2022-12-23T15:34:36.992Z,45.77
2022-12-23T15:40:09.564Z,45.34
2022-12-23T15:45:37.706Z,44.95
2022-12-23T15:51:05.479Z,44.52
2022-12-23T15:56:32.175Z,44.63
2022-12-23T16:01:54.205Z,44.74
2022-12-23T16:07:42.128Z,45.03
2022-12-23T16:13:04.079Z,44.53
2022-12-23T16:18:32.885Z,44.30
2022-12-23T16:23:55.441Z,43.96
2022-12-23T16:29:17.187Z,43.86
2022-12-23T16:34:38.896Z,43.59
2022-12-23T16:40:03.187Z,43.12
2022-12-23T16:45:24.868Z,43.20
2022-12-23T16:50:47.393Z,43.43
2022-12-23T16:56:14.281Z,43.78
2022-12-23T17:01:42.318Z,43.78
2022-12-23T17:07:09.437Z,43.84
2022-12-23T17:12:31.199Z,44.08
2022-12-23T17:17:53.327Z,44.13
2022-12-23T17:23:26.643Z,44.15
2022-12-23T17:28:48.386Z,44.47
2022-12-23T17:34:21.907Z,44.84
2022-12-23T17:39:45.174Z,44.91
2022-12-23T17:45:17.592Z,44.83
2022-12-23T17:50:41.091Z,44.99
2022-12-23T17:56:03.735Z,45.26
2022-12-23T18:01:27.023Z,45.17
2022-12-23T18:06:48.836Z,44.98
2022-12-23T18:12:34.259Z,45.00
2022-12-23T18:17:56.341Z,44.97
2022-12-23T18:23:27.150Z,44.81
2022-12-23T18:28:48.991Z,44.87
2022-12-23T18:34:18.177Z,45.01
2022-12-23T18:39:39.911Z,45.11
2022-12-23T18:45:01.686Z,44.64
2022-12-23T18:50:23.718Z,44.51
2022-12-23T18:55:45.468Z,44.78
2022-12-23T19:01:11.886Z,44.61
2022-12-23T19:06:33.699Z,44.17
2022-12-23T19:11:55.456Z,44.38
2022-12-23T19:17:17.683Z,43.78
2022-12-23T19:22:40.119Z,44.27
2022-12-23T19:28:01.925Z,44.61
2022-12-23T19:33:23.714Z,44.82
2022-12-23T19:38:45.703Z,45.14
2022-12-23T19:44:07.494Z,45.25
2022-12-23T19:49:29.231Z,45.59
2022-12-23T19:54:52.463Z,45.66
2022-12-23T20:00:16.101Z,45.51
2022-12-23T20:05:37.848Z,45.32
2022-12-23T20:11:11.356Z,44.95
2022-12-23T20:16:34.449Z,44.77
2022-12-23T20:21:56.213Z,44.69
2022-12-23T20:27:22.641Z,44.92
2022-12-23T20:32:47.847Z,45.36
2022-12-23T20:38:09.654Z,45.09
2022-12-23T20:43:34.413Z,45.21
2022-12-23T20:48:56.216Z,45.35
2022-12-23T20:54:18.040Z,45.50
2022-12-23T20:59:39.737Z,45.80
2022-12-23T21:05:01.480Z,45.98
2022-12-23T21:10:23.136Z,45.88
2022-12-23T21:15:44.848Z,46.01
2022-12-23T21:21:06.585Z,45.78
2022-12-23T21:26:30.495Z,45.47
2022-12-23T21:31:52.472Z,45.66
2022-12-23T21:37:14.300Z,45.77
2022-12-23T21:42:35.971Z,45.96
2022-12-23T21:47:57.673Z,45.83
2022-12-23T21:53:19.570Z,46.12
2022-12-23T21:58:42.029Z,45.99
2022-12-23T22:04:04.648Z,45.48
2022-12-23T22:09:26.338Z,46.03
2022-12-23T22:14:48.028Z,46.03
2022-12-23T22:20:10.151Z,46.16
2022-12-23T22:25:31.888Z,46.07
2022-12-23T22:30:53.576Z,46.02
2022-12-23T22:36:16.044Z,45.83
2022-12-23T22:41:37.769Z,46.17
2022-12-23T22:46:59.490Z,46.24
2022-12-23T22:52:21.238Z,45.70
2022-12-23T22:57:42.975Z,45.72
2022-12-23T23:03:04.702Z,45.87
2022-12-23T23:08:26.967Z,46.02
2022-12-23T23:13:48.915Z,45.79
2022-12-23T23:19:11.624Z,45.78
2022-12-23T23:24:34.327Z,46.08
2022-12-23T23:29:56.011Z,45.95
2022-12-23T23:35:17.746Z,45.75
2022-12-23T23:40:39.671Z,45.69
2022-12-23T23:46:01.474Z,45.91
2022-12-23T23:51:23.619Z,45.92
2022-12-23T23:56:45.310Z,45.64
